Prather, California
Current Conditions -  °F | °C
As of 7:53 PM on Saturday 25 Oct 2014 (Local Time) from KFAT Reporting Station
Broken Clouds Broken Clouds  
Wind Chill: 67°   Ceiling: 10000
Heat Index: 67°   Visibility: 10mi
Dew Point: 52°   Wind: 7mph
Humidity: 59%   Direction: 320°NW
Pressure: 30.06"   Gusts: NA
Location:  37.04°N, 119.51°W
Report Text: KFAT 260253Z 32006KT 10SM SCT065 BKN100 19/11 A3006 RMK AO2 SLP177 T01940111 53005
Loading
Personal Weather Stations






























Interactive Weather Map New forecast layout! Learn more

10-Day Weather Forecast

Advertisements
Track Severe Weather on mobile